sensor_id;sensor_type;location;lat;lon;timestamp;P1;durP1;ratioP1;P2;durP2;ratioP2
61336;SDS011;47212;41.326;2.104;2022-10-16T00:03:58;6.53;;;4.82;;
61336;SDS011;47212;41.326;2.104;2022-10-16T00:09:05;12.15;;;6.40;;
61336;SDS011;47212;41.326;2.104;2022-10-16T00:14:09;9.15;;;5.95;;
61336;SDS011;47212;41.326;2.104;2022-10-16T00:19:13;8.95;;;5.10;;
61336;SDS011;47212;41.326;2.104;2022-10-16T00:24:15;7.68;;;5.15;;
61336;SDS011;47212;41.326;2.104;2022-10-16T00:29:20;8.40;;;5.10;;
61336;SDS011;47212;41.326;2.104;2022-10-16T00:34:23;8.05;;;5.00;;
61336;SDS011;47212;41.326;2.104;2022-10-16T00:39:33;8.05;;;4.07;;
61336;SDS011;47212;41.326;2.104;2022-10-16T00:44:53;7.13;;;4.53;;
61336;SDS011;47212;41.326;2.104;2022-10-16T00:50:00;5.90;;;4.43;;
61336;SDS011;47212;41.326;2.104;2022-10-16T00:55:13;6.00;;;4.20;;
61336;SDS011;47212;41.326;2.104;2022-10-16T01:05:11;11.13;;;7.10;;
61336;SDS011;47212;41.326;2.104;2022-10-16T01:21:27;8.55;;;4.28;;
61336;SDS011;47212;41.326;2.104;2022-10-16T01:26:48;6.90;;;4.70;;
61336;SDS011;47212;41.326;2.104;2022-10-16T01:42:40;4.80;;;3.90;;
61336;SDS011;47212;41.326;2.104;2022-10-16T01:47:48;9.98;;;4.97;;
61336;SDS011;47212;41.326;2.104;2022-10-16T01:52:59;7.22;;;4.25;;
61336;SDS011;47212;41.326;2.104;2022-10-16T01:58:05;6.70;;;5.10;;
61336;SDS011;47212;41.326;2.104;2022-10-16T02:03:20;8.73;;;5.40;;
61336;SDS011;47212;41.326;2.104;2022-10-16T02:08:23;5.65;;;4.75;;
61336;SDS011;47212;41.326;2.104;2022-10-16T02:13:36;8.98;;;5.90;;
61336;SDS011;47212;41.326;2.104;2022-10-16T02:18:59;11.10;;;6.07;;
61336;SDS011;47212;41.326;2.104;2022-10-16T02:24:08;10.98;;;5.45;;
61336;SDS011;47212;41.326;2.104;2022-10-16T02:29:16;8.50;;;6.38;;
61336;SDS011;47212;41.326;2.104;2022-10-16T02:34:22;11.20;;;5.65;;
61336;SDS011;47212;41.326;2.104;2022-10-16T02:39:27;10.10;;;5.55;;
61336;SDS011;47212;41.326;2.104;2022-10-16T02:44:31;9.25;;;5.72;;
61336;SDS011;47212;41.326;2.104;2022-10-16T02:49:34;7.30;;;5.50;;
61336;SDS011;47212;41.326;2.104;2022-10-16T02:54:37;6.50;;;4.93;;
61336;SDS011;47212;41.326;2.104;2022-10-16T03:05:16;8.15;;;5.53;;
61336;SDS011;47212;41.326;2.104;2022-10-16T03:10:23;8.35;;;6.20;;
61336;SDS011;47212;41.326;2.104;2022-10-16T03:15:29;8.45;;;6.82;;
61336;SDS011;47212;41.326;2.104;2022-10-16T03:20:35;9.27;;;6.85;;
61336;SDS011;47212;41.326;2.104;2022-10-16T03:25:41;9.52;;;7.50;;
61336;SDS011;47212;41.326;2.104;2022-10-16T03:30:53;10.38;;;7.20;;
61336;SDS011;47212;41.326;2.104;2022-10-16T03:35:59;18.70;;;9.10;;
61336;SDS011;47212;41.326;2.104;2022-10-16T03:41:08;10.05;;;6.85;;
61336;SDS011;47212;41.326;2.104;2022-10-16T03:46:14;7.43;;;5.30;;
61336;SDS011;47212;41.326;2.104;2022-10-16T03:51:23;10.93;;;7.25;;
61336;SDS011;47212;41.326;2.104;2022-10-16T03:56:42;11.10;;;7.57;;
61336;SDS011;47212;41.326;2.104;2022-10-16T04:01:48;13.82;;;8.38;;
61336;SDS011;47212;41.326;2.104;2022-10-16T04:06:56;20.98;;;9.73;;
61336;SDS011;47212;41.326;2.104;2022-10-16T04:12:00;17.85;;;10.10;;
61336;SDS011;47212;41.326;2.104;2022-10-16T04:17:08;20.52;;;11.57;;
61336;SDS011;47212;41.326;2.104;2022-10-16T04:22:20;15.38;;;9.68;;
61336;SDS011;47212;41.326;2.104;2022-10-16T04:27:26;18.35;;;11.80;;
61336;SDS011;47212;41.326;2.104;2022-10-16T04:32:37;14.43;;;10.80;;
61336;SDS011;47212;41.326;2.104;2022-10-16T04:43:14;20.48;;;11.98;;
61336;SDS011;47212;41.326;2.104;2022-10-16T04:48:18;20.95;;;12.18;;
61336;SDS011;47212;41.326;2.104;2022-10-16T04:53:23;16.55;;;10.70;;
61336;SDS011;47212;41.326;2.104;2022-10-16T04:58:33;11.93;;;9.55;;
61336;SDS011;47212;41.326;2.104;2022-10-16T05:03:48;12.48;;;9.55;;
61336;SDS011;47212;41.326;2.104;2022-10-16T05:08:55;12.20;;;10.70;;
61336;SDS011;47212;41.326;2.104;2022-10-16T05:14:07;15.40;;;9.75;;
61336;SDS011;47212;41.326;2.104;2022-10-16T05:19:18;15.07;;;10.55;;
61336;SDS011;47212;41.326;2.104;2022-10-16T05:24:31;15.15;;;10.70;;
61336;SDS011;47212;41.326;2.104;2022-10-16T05:29:38;13.25;;;9.98;;
61336;SDS011;47212;41.326;2.104;2022-10-16T05:34:48;12.40;;;9.20;;
61336;SDS011;47212;41.326;2.104;2022-10-16T05:40:12;17.35;;;10.05;;
61336;SDS011;47212;41.326;2.104;2022-10-16T05:45:18;16.73;;;9.60;;
61336;SDS011;47212;41.326;2.104;2022-10-16T05:50:37;13.98;;;10.77;;
61336;SDS011;47212;41.326;2.104;2022-10-16T05:55:43;16.38;;;10.52;;
61336;SDS011;47212;41.326;2.104;2022-10-16T06:01:20;14.55;;;9.98;;
61336;SDS011;47212;41.326;2.104;2022-10-16T06:06:30;15.60;;;11.27;;
61336;SDS011;47212;41.326;2.104;2022-10-16T06:11:39;13.48;;;9.43;;
61336;SDS011;47212;41.326;2.104;2022-10-16T06:16:58;12.95;;;10.15;;
61336;SDS011;47212;41.326;2.104;2022-10-16T06:22:19;14.32;;;8.65;;
61336;SDS011;47212;41.326;2.104;2022-10-16T06:27:31;17.23;;;11.05;;
61336;SDS011;47212;41.326;2.104;2022-10-16T06:33:14;18.73;;;12.40;;
61336;SDS011;47212;41.326;2.104;2022-10-16T06:38:21;15.82;;;11.38;;
61336;SDS011;47212;41.326;2.104;2022-10-16T06:43:46;16.83;;;11.80;;
61336;SDS011;47212;41.326;2.104;2022-10-16T06:48:55;17.17;;;12.60;;
61336;SDS011;47212;41.326;2.104;2022-10-16T06:53:59;18.83;;;11.30;;
61336;SDS011;47212;41.326;2.104;2022-10-16T06:59:19;17.85;;;11.35;;
61336;SDS011;47212;41.326;2.104;2022-10-16T07:04:26;14.98;;;10.57;;
61336;SDS011;47212;41.326;2.104;2022-10-16T07:09:42;16.42;;;11.18;;
61336;SDS011;47212;41.326;2.104;2022-10-16T07:14:51;18.58;;;11.48;;
61336;SDS011;47212;41.326;2.104;2022-10-16T07:20:19;20.20;;;12.73;;
61336;SDS011;47212;41.326;2.104;2022-10-16T07:25:36;22.23;;;13.93;;
61336;SDS011;47212;41.326;2.104;2022-10-16T07:30:41;22.23;;;14.48;;
61336;SDS011;47212;41.326;2.104;2022-10-16T07:36:02;20.15;;;13.40;;
61336;SDS011;47212;41.326;2.104;2022-10-16T07:41:18;21.95;;;13.02;;
61336;SDS011;47212;41.326;2.104;2022-10-16T07:46:29;15.82;;;10.70;;
61336;SDS011;47212;41.326;2.104;2022-10-16T07:52:01;16.77;;;11.32;;
61336;SDS011;47212;41.326;2.104;2022-10-16T07:57:11;18.35;;;10.85;;
61336;SDS011;47212;41.326;2.104;2022-10-16T08:02:18;16.00;;;11.13;;
61336;SDS011;47212;41.326;2.104;2022-10-16T08:07:27;16.52;;;9.77;;
61336;SDS011;47212;41.326;2.104;2022-10-16T08:12:31;20.90;;;9.80;;
61336;SDS011;47212;41.326;2.104;2022-10-16T08:17:40;16.08;;;10.13;;
61336;SDS011;47212;41.326;2.104;2022-10-16T08:22:47;16.50;;;10.55;;
61336;SDS011;47212;41.326;2.104;2022-10-16T08:27:51;18.77;;;12.77;;
61336;SDS011;47212;41.326;2.104;2022-10-16T08:33:04;19.67;;;11.73;;
61336;SDS011;47212;41.326;2.104;2022-10-16T08:38:11;16.92;;;10.85;;
61336;SDS011;47212;41.326;2.104;2022-10-16T08:54:12;26.45;;;17.10;;
61336;SDS011;47212;41.326;2.104;2022-10-16T08:59:46;21.27;;;12.23;;
61336;SDS011;47212;41.326;2.104;2022-10-16T09:10:30;16.95;;;12.52;;
61336;SDS011;47212;41.326;2.104;2022-10-16T09:21:24;18.58;;;10.93;;
61336;SDS011;47212;41.326;2.104;2022-10-16T09:26:35;21.20;;;11.43;;
61336;SDS011;47212;41.326;2.104;2022-10-16T09:31:46;26.48;;;15.18;;
61336;SDS011;47212;41.326;2.104;2022-10-16T09:36:59;22.73;;;14.57;;
61336;SDS011;47212;41.326;2.104;2022-10-16T09:42:24;16.30;;;11.30;;
61336;SDS011;47212;41.326;2.104;2022-10-16T09:47:57;13.15;;;6.68;;
61336;SDS011;47212;41.326;2.104;2022-10-16T09:53:12;12.63;;;4.93;;
61336;SDS011;47212;41.326;2.104;2022-10-16T09:58:22;5.75;;;3.50;;
61336;SDS011;47212;41.326;2.104;2022-10-16T10:03:37;8.68;;;3.03;;
61336;SDS011;47212;41.326;2.104;2022-10-16T10:19:58;10.02;;;3.78;;
61336;SDS011;47212;41.326;2.104;2022-10-16T10:36:21;11.60;;;4.22;;
61336;SDS011;47212;41.326;2.104;2022-10-16T10:52:49;8.55;;;2.33;;
61336;SDS011;47212;41.326;2.104;2022-10-16T11:09:58;9.80;;;3.28;;
61336;SDS011;47212;41.326;2.104;2022-10-16T11:15:19;7.63;;;2.95;;
61336;SDS011;47212;41.326;2.104;2022-10-16T11:20:42;4.80;;;2.20;;
61336;SDS011;47212;41.326;2.104;2022-10-16T11:26:19;9.05;;;2.97;;
61336;SDS011;47212;41.326;2.104;2022-10-16T11:31:49;7.50;;;3.35;;
61336;SDS011;47212;41.326;2.104;2022-10-16T11:37:12;9.10;;;3.40;;
61336;SDS011;47212;41.326;2.104;2022-10-16T11:49:08;8.15;;;2.58;;
61336;SDS011;47212;41.326;2.104;2022-10-16T11:59:52;8.68;;;3.10;;
61336;SDS011;47212;41.326;2.104;2022-10-16T12:05:38;7.95;;;2.63;;
61336;SDS011;47212;41.326;2.104;2022-10-16T12:10:46;6.32;;;2.58;;
61336;SDS011;47212;41.326;2.104;2022-10-16T12:15:51;11.45;;;2.85;;
61336;SDS011;47212;41.326;2.104;2022-10-16T12:21:03;6.82;;;3.00;;
61336;SDS011;47212;41.326;2.104;2022-10-16T12:26:50;10.82;;;3.03;;
61336;SDS011;47212;41.326;2.104;2022-10-16T12:32:27;6.28;;;2.50;;
61336;SDS011;47212;41.326;2.104;2022-10-16T12:37:53;10.40;;;4.53;;
61336;SDS011;47212;41.326;2.104;2022-10-16T12:43:25;8.30;;;3.35;;
61336;SDS011;47212;41.326;2.104;2022-10-16T12:48:39;8.35;;;3.20;;
61336;SDS011;47212;41.326;2.104;2022-10-16T12:54:03;7.43;;;3.33;;
61336;SDS011;47212;41.326;2.104;2022-10-16T13:17:45;8.80;;;3.53;;
61336;SDS011;47212;41.326;2.104;2022-10-16T13:23:21;6.95;;;3.45;;
61336;SDS011;47212;41.326;2.104;2022-10-16T13:28:47;7.82;;;3.00;;
61336;SDS011;47212;41.326;2.104;2022-10-16T13:33:55;9.48;;;2.90;;
61336;SDS011;47212;41.326;2.104;2022-10-16T13:39:22;6.60;;;2.83;;
61336;SDS011;47212;41.326;2.104;2022-10-16T13:44:40;6.70;;;2.85;;
61336;SDS011;47212;41.326;2.104;2022-10-16T13:50:04;6.82;;;2.35;;
61336;SDS011;47212;41.326;2.104;2022-10-16T14:00:24;9.68;;;3.33;;
61336;SDS011;47212;41.326;2.104;2022-10-16T14:06:01;5.18;;;2.45;;
61336;SDS011;47212;41.326;2.104;2022-10-16T14:11:31;5.40;;;2.57;;
61336;SDS011;47212;41.326;2.104;2022-10-16T14:16:38;10.18;;;2.60;;
61336;SDS011;47212;41.326;2.104;2022-10-16T14:21:49;10.05;;;3.05;;
61336;SDS011;47212;41.326;2.104;2022-10-16T14:32:57;5.72;;;2.53;;
61336;SDS011;47212;41.326;2.104;2022-10-16T14:38:28;5.05;;;2.45;;
61336;SDS011;47212;41.326;2.104;2022-10-16T14:43:36;8.93;;;2.53;;
61336;SDS011;47212;41.326;2.104;2022-10-16T14:48:54;6.88;;;2.53;;
61336;SDS011;47212;41.326;2.104;2022-10-16T14:54:27;6.70;;;2.72;;
61336;SDS011;47212;41.326;2.104;2022-10-16T14:59:38;5.35;;;2.03;;
61336;SDS011;47212;41.326;2.104;2022-10-16T15:04:50;5.32;;;2.13;;
61336;SDS011;47212;41.326;2.104;2022-10-16T15:09:57;8.83;;;2.60;;
61336;SDS011;47212;41.326;2.104;2022-10-16T15:20:44;9.60;;;2.80;;
61336;SDS011;47212;41.326;2.104;2022-10-16T15:26:16;8.93;;;2.42;;
61336;SDS011;47212;41.326;2.104;2022-10-16T15:31:23;4.38;;;2.13;;
61336;SDS011;47212;41.326;2.104;2022-10-16T15:36:33;6.57;;;2.35;;
61336;SDS011;47212;41.326;2.104;2022-10-16T15:41:47;10.13;;;2.50;;
61336;SDS011;47212;41.326;2.104;2022-10-16T15:52:01;8.73;;;3.53;;
61336;SDS011;47212;41.326;2.104;2022-10-16T15:57:11;11.57;;;5.55;;
61336;SDS011;47212;41.326;2.104;2022-10-16T16:02:17;6.60;;;2.83;;
61336;SDS011;47212;41.326;2.104;2022-10-16T16:07:20;6.25;;;2.80;;
61336;SDS011;47212;41.326;2.104;2022-10-16T16:12:27;6.75;;;2.30;;
61336;SDS011;47212;41.326;2.104;2022-10-16T16:17:40;8.90;;;2.42;;
61336;SDS011;47212;41.326;2.104;2022-10-16T16:22:48;5.13;;;2.30;;
61336;SDS011;47212;41.326;2.104;2022-10-16T16:28:02;5.15;;;2.65;;
61336;SDS011;47212;41.326;2.104;2022-10-16T16:33:21;11.13;;;3.58;;
61336;SDS011;47212;41.326;2.104;2022-10-16T16:45:59;6.70;;;3.53;;
61336;SDS011;47212;41.326;2.104;2022-10-16T16:51:04;7.13;;;4.00;;
61336;SDS011;47212;41.326;2.104;2022-10-16T16:56:26;9.55;;;3.50;;
61336;SDS011;47212;41.326;2.104;2022-10-16T17:01:35;6.82;;;2.80;;
61336;SDS011;47212;41.326;2.104;2022-10-16T17:06:42;9.73;;;2.90;;
61336;SDS011;47212;41.326;2.104;2022-10-16T17:11:51;7.65;;;2.80;;
61336;SDS011;47212;41.326;2.104;2022-10-16T17:17:00;6.93;;;2.67;;
61336;SDS011;47212;41.326;2.104;2022-10-16T17:22:53;9.25;;;2.78;;
61336;SDS011;47212;41.326;2.104;2022-10-16T17:28:06;5.40;;;2.58;;
61336;SDS011;47212;41.326;2.104;2022-10-16T17:33:24;5.60;;;2.50;;
61336;SDS011;47212;41.326;2.104;2022-10-16T17:38:32;6.28;;;2.88;;
61336;SDS011;47212;41.326;2.104;2022-10-16T17:43:42;7.47;;;2.70;;
61336;SDS011;47212;41.326;2.104;2022-10-16T17:48:50;6.45;;;2.67;;
61336;SDS011;47212;41.326;2.104;2022-10-16T17:54:02;5.85;;;2.47;;
61336;SDS011;47212;41.326;2.104;2022-10-16T17:59:11;6.30;;;2.45;;
61336;SDS011;47212;41.326;2.104;2022-10-16T18:04:28;5.45;;;2.42;;
61336;SDS011;47212;41.326;2.104;2022-10-16T18:09:42;8.10;;;2.70;;
61336;SDS011;47212;41.326;2.104;2022-10-16T18:15:13;6.90;;;2.70;;
61336;SDS011;47212;41.326;2.104;2022-10-16T18:21:07;6.10;;;2.72;;
61336;SDS011;47212;41.326;2.104;2022-10-16T18:26:16;22.20;;;9.45;;
61336;SDS011;47212;41.326;2.104;2022-10-16T18:31:34;9.57;;;5.03;;
61336;SDS011;47212;41.326;2.104;2022-10-16T18:36:48;12.60;;;4.15;;
61336;SDS011;47212;41.326;2.104;2022-10-16T18:42:07;5.10;;;2.95;;
61336;SDS011;47212;41.326;2.104;2022-10-16T18:47:16;9.45;;;3.55;;
61336;SDS011;47212;41.326;2.104;2022-10-16T18:52:34;8.63;;;3.22;;
61336;SDS011;47212;41.326;2.104;2022-10-16T18:57:47;10.00;;;3.55;;
61336;SDS011;47212;41.326;2.104;2022-10-16T19:02:55;4.50;;;2.55;;
61336;SDS011;47212;41.326;2.104;2022-10-16T19:08:05;8.38;;;3.85;;
61336;SDS011;47212;41.326;2.104;2022-10-16T19:13:13;13.07;;;8.43;;
61336;SDS011;47212;41.326;2.104;2022-10-16T19:18:24;10.85;;;7.32;;
61336;SDS011;47212;41.326;2.104;2022-10-16T19:23:32;12.93;;;9.33;;
61336;SDS011;47212;41.326;2.104;2022-10-16T19:28:42;8.88;;;6.28;;
61336;SDS011;47212;41.326;2.104;2022-10-16T19:33:52;9.20;;;4.78;;
61336;SDS011;47212;41.326;2.104;2022-10-16T19:39:12;7.45;;;3.33;;
61336;SDS011;47212;41.326;2.104;2022-10-16T19:44:27;7.55;;;2.67;;
61336;SDS011;47212;41.326;2.104;2022-10-16T19:49:42;4.48;;;2.32;;
61336;SDS011;47212;41.326;2.104;2022-10-16T19:54:47;3.83;;;2.10;;
61336;SDS011;47212;41.326;2.104;2022-10-16T19:59:58;8.40;;;4.63;;
61336;SDS011;47212;41.326;2.104;2022-10-16T20:10:17;6.10;;;2.90;;
61336;SDS011;47212;41.326;2.104;2022-10-16T20:15:28;5.13;;;2.90;;
61336;SDS011;47212;41.326;2.104;2022-10-16T20:26:30;11.27;;;3.42;;
61336;SDS011;47212;41.326;2.104;2022-10-16T20:31:33;6.78;;;3.58;;
61336;SDS011;47212;41.326;2.104;2022-10-16T20:36:39;8.93;;;2.90;;
61336;SDS011;47212;41.326;2.104;2022-10-16T20:41:47;5.40;;;2.78;;
61336;SDS011;47212;41.326;2.104;2022-10-16T20:46:55;5.05;;;2.58;;
61336;SDS011;47212;41.326;2.104;2022-10-16T20:52:09;7.40;;;3.33;;
61336;SDS011;47212;41.326;2.104;2022-10-16T20:57:18;4.57;;;2.58;;
61336;SDS011;47212;41.326;2.104;2022-10-16T21:02:29;4.45;;;2.47;;
61336;SDS011;47212;41.326;2.104;2022-10-16T21:07:34;7.30;;;2.50;;
61336;SDS011;47212;41.326;2.104;2022-10-16T21:12:53;4.63;;;2.53;;
61336;SDS011;47212;41.326;2.104;2022-10-16T21:18:00;8.93;;;4.97;;
61336;SDS011;47212;41.326;2.104;2022-10-16T21:23:12;6.00;;;3.15;;
61336;SDS011;47212;41.326;2.104;2022-10-16T21:28:27;4.30;;;2.67;;
61336;SDS011;47212;41.326;2.104;2022-10-16T21:33:41;6.45;;;2.95;;
61336;SDS011;47212;41.326;2.104;2022-10-16T21:39:12;3.67;;;2.20;;
61336;SDS011;47212;41.326;2.104;2022-10-16T21:44:30;4.25;;;2.40;;
61336;SDS011;47212;41.326;2.104;2022-10-16T21:49:40;3.67;;;2.25;;
61336;SDS011;47212;41.326;2.104;2022-10-16T21:55:06;6.63;;;3.10;;
61336;SDS011;47212;41.326;2.104;2022-10-16T22:00:17;7.43;;;3.05;;
61336;SDS011;47212;41.326;2.104;2022-10-16T22:05:34;3.42;;;2.30;;
61336;SDS011;47212;41.326;2.104;2022-10-16T22:11:07;5.22;;;2.50;;
61336;SDS011;47212;41.326;2.104;2022-10-16T22:16:25;4.40;;;2.15;;
61336;SDS011;47212;41.326;2.104;2022-10-16T22:21:36;3.37;;;2.17;;
61336;SDS011;47212;41.326;2.104;2022-10-16T22:26:41;5.43;;;2.60;;
61336;SDS011;47212;41.326;2.104;2022-10-16T22:31:49;7.97;;;2.33;;
61336;SDS011;47212;41.326;2.104;2022-10-16T22:37:01;9.70;;;5.35;;
61336;SDS011;47212;41.326;2.104;2022-10-16T22:42:11;4.43;;;2.85;;
61336;SDS011;47212;41.326;2.104;2022-10-16T22:47:17;6.07;;;2.58;;
61336;SDS011;47212;41.326;2.104;2022-10-16T22:52:38;3.92;;;2.00;;
61336;SDS011;47212;41.326;2.104;2022-10-16T22:58:10;3.15;;;2.00;;
61336;SDS011;47212;41.326;2.104;2022-10-16T23:03:28;4.88;;;2.53;;
61336;SDS011;47212;41.326;2.104;2022-10-16T23:08:32;5.65;;;3.03;;
61336;SDS011;47212;41.326;2.104;2022-10-16T23:13:51;3.35;;;2.20;;
61336;SDS011;47212;41.326;2.104;2022-10-16T23:19:04;3.63;;;2.10;;
61336;SDS011;47212;41.326;2.104;2022-10-16T23:24:16;5.28;;;2.08;;
61336;SDS011;47212;41.326;2.104;2022-10-16T23:29:22;6.78;;;2.60;;
61336;SDS011;47212;41.326;2.104;2022-10-16T23:34:25;7.20;;;2.97;;
61336;SDS011;47212;41.326;2.104;2022-10-16T23:40:24;10.15;;;7.07;;
61336;SDS011;47212;41.326;2.104;2022-10-16T23:45:36;4.05;;;2.97;;
61336;SDS011;47212;41.326;2.104;2022-10-16T23:51:08;4.57;;;2.60;;
61336;SDS011;47212;41.326;2.104;2022-10-16T23:56:11;6.65;;;2.72;;
